createdAt,value
2023-06-15T00:01:24.396Z,17.80
2023-06-15T00:03:52.631Z,17.70
2023-06-15T00:06:21.153Z,17.70
2023-06-15T00:08:49.238Z,17.70
2023-06-15T00:11:17.208Z,17.80
2023-06-15T00:13:45.190Z,17.60
2023-06-15T00:16:15.407Z,17.40
2023-06-15T00:18:48.846Z,17.40
2023-06-15T00:21:17.499Z,17.50
2023-06-15T00:23:47.301Z,17.30
2023-06-15T00:26:15.403Z,17.30
2023-06-15T00:28:43.707Z,17.10
2023-06-15T00:31:11.727Z,17.10
2023-06-15T00:33:39.720Z,17.30
2023-06-15T00:36:13.226Z,17.40
2023-06-15T00:38:41.716Z,17.40
2023-06-15T00:41:09.731Z,17.20
2023-06-15T00:43:37.803Z,17.20
2023-06-15T00:46:06.201Z,17.00
2023-06-15T00:48:34.475Z,17.10
2023-06-15T00:51:02.744Z,16.90
2023-06-15T00:53:33.378Z,16.90
2023-06-15T00:56:01.692Z,16.90
2023-06-15T00:58:29.858Z,16.80
2023-06-15T01:00:57.865Z,16.80
2023-06-15T01:03:26.048Z,16.60
2023-06-15T01:05:58.586Z,16.60
2023-06-15T01:08:28.764Z,16.70
2023-06-15T01:10:58.769Z,16.90
2023-06-15T01:13:28.359Z,16.80
2023-06-15T01:16:00.120Z,16.80
2023-06-15T01:18:30.935Z,16.60
2023-06-15T01:21:02.760Z,16.70
2023-06-15T01:23:45.596Z,16.50
2023-06-15T01:26:16.320Z,16.40
2023-06-15T01:28:48.870Z,16.40
2023-06-15T01:31:17.687Z,16.50
2023-06-15T01:33:47.323Z,16.50
2023-06-15T01:36:15.693Z,16.50
2023-06-15T01:38:45.151Z,16.50
2023-06-15T01:41:15.884Z,16.30
2023-06-15T01:43:44.466Z,16.40
2023-06-15T01:46:12.848Z,16.50
2023-06-15T01:48:41.201Z,16.70
2023-06-15T01:51:09.390Z,16.60
2023-06-15T01:53:37.990Z,16.70
2023-06-15T01:56:06.604Z,16.80
2023-06-15T01:58:36.626Z,16.70
2023-06-15T02:01:04.572Z,16.70
2023-06-15T02:03:33.388Z,16.60
2023-06-15T02:06:01.327Z,16.70
2023-06-15T02:08:29.289Z,16.70
2023-06-15T02:10:57.261Z,16.80
2023-06-15T02:13:25.326Z,16.70
2023-06-15T02:15:55.141Z,16.60
2023-06-15T02:18:23.784Z,16.60
2023-06-15T02:20:52.254Z,16.50
2023-06-15T02:23:21.307Z,16.20
2023-06-15T02:25:49.816Z,16.10
2023-06-15T02:28:18.084Z,16.10
2023-06-15T02:30:46.076Z,16.20
2023-06-15T02:33:16.876Z,16.00
2023-06-15T02:35:45.266Z,16.00
2023-06-15T02:38:13.270Z,16.00
2023-06-15T02:40:41.274Z,16.00
2023-06-15T02:43:09.218Z,16.00
2023-06-15T02:45:38.852Z,16.10
2023-06-15T02:48:07.599Z,15.90
2023-06-15T02:50:37.814Z,16.00
2023-06-15T02:53:05.892Z,16.00
2023-06-15T02:55:38.644Z,16.00
2023-06-15T02:58:08.323Z,16.10
2023-06-15T03:00:37.728Z,16.20
2023-06-15T03:03:05.759Z,16.30
2023-06-15T03:05:34.207Z,16.30
2023-06-15T03:08:03.771Z,16.30
2023-06-15T03:10:31.841Z,16.30
2023-06-15T03:12:59.886Z,16.20
2023-06-15T03:15:28.092Z,16.20
2023-06-15T03:17:56.164Z,16.10
2023-06-15T03:20:24.329Z,16.10
2023-06-15T03:22:52.491Z,16.00
2023-06-15T03:25:22.724Z,16.10
2023-06-15T03:27:54.324Z,16.20
2023-06-15T03:30:22.739Z,16.10
2023-06-15T03:32:51.086Z,16.00
2023-06-15T03:35:22.314Z,15.90
2023-06-15T03:37:50.582Z,15.90
2023-06-15T03:40:18.761Z,15.80
2023-06-15T03:42:48.495Z,15.90
2023-06-15T03:45:16.799Z,15.90
2023-06-15T03:47:44.928Z,16.00
2023-06-15T03:50:12.990Z,16.00
2023-06-15T03:52:41.061Z,16.00
2023-06-15T03:55:09.905Z,15.90
2023-06-15T03:57:38.044Z,15.90
2023-06-15T04:00:09.853Z,15.90
2023-06-15T04:02:38.126Z,16.00
2023-06-15T04:05:07.266Z,16.00
2023-06-15T04:07:35.922Z,15.90
2023-06-15T04:10:05.083Z,16.00
2023-06-15T04:12:33.145Z,15.90
2023-06-15T04:15:01.171Z,15.90
2023-06-15T04:17:30.772Z,15.90
2023-06-15T04:19:59.198Z,15.90
2023-06-15T04:22:27.546Z,15.90
2023-06-15T04:24:55.668Z,15.90
2023-06-15T04:27:24.416Z,15.90
2023-06-15T04:29:54.176Z,15.90
2023-06-15T04:32:24.738Z,15.90
2023-06-15T04:34:55.276Z,15.90
2023-06-15T04:37:24.318Z,15.90
2023-06-15T04:39:52.490Z,15.90
2023-06-15T04:42:20.604Z,15.90
2023-06-15T04:44:49.985Z,16.00
2023-06-15T04:47:18.426Z,16.10
2023-06-15T04:49:46.459Z,16.20
2023-06-15T04:52:15.930Z,16.30
2023-06-15T04:54:44.093Z,16.30
2023-06-15T04:57:12.097Z,16.30
2023-06-15T04:59:40.427Z,16.40
2023-06-15T05:02:08.992Z,16.50
2023-06-15T05:04:37.369Z,16.60
2023-06-15T05:07:05.719Z,16.70
2023-06-15T05:09:35.080Z,16.70
2023-06-15T05:12:03.960Z,16.90
2023-06-15T05:14:31.984Z,17.00
2023-06-15T05:17:04.260Z,17.10
2023-06-15T05:19:32.273Z,17.10
2023-06-15T05:22:01.600Z,17.20
2023-06-15T05:24:29.888Z,17.30
2023-06-15T05:26:59.365Z,17.40
2023-06-15T05:29:27.375Z,17.70
2023-06-15T05:31:56.749Z,17.80
2023-06-15T05:34:24.726Z,18.10
2023-06-15T05:36:57.556Z,18.20
2023-06-15T05:39:26.981Z,18.30
2023-06-15T05:41:55.125Z,18.40
2023-06-15T05:44:24.575Z,18.50
2023-06-15T05:46:54.199Z,18.70
2023-06-15T05:49:22.382Z,18.70
2023-06-15T05:51:50.441Z,18.80
2023-06-15T05:54:18.401Z,18.80
2023-06-15T05:56:46.359Z,18.80
2023-06-15T05:59:31.089Z,18.90
2023-06-15T06:02:02.156Z,19.00
2023-06-15T06:04:30.888Z,19.10
2023-06-15T06:06:59.146Z,19.10
2023-06-15T06:09:27.268Z,19.10
2023-06-15T06:11:55.287Z,19.20
2023-06-15T06:14:23.801Z,19.30
2023-06-15T06:16:52.241Z,19.30
2023-06-15T06:19:21.851Z,19.40
2023-06-15T06:21:49.972Z,19.40
2023-06-15T06:24:21.110Z,19.40
2023-06-15T06:26:51.230Z,19.50
2023-06-15T06:29:19.342Z,19.50
2023-06-15T06:31:47.289Z,19.60
2023-06-15T06:34:15.432Z,19.50
2023-06-15T06:36:44.924Z,19.60
2023-06-15T06:39:12.986Z,19.60
2023-06-15T06:41:41.188Z,19.60
2023-06-15T06:44:12.009Z,19.70
2023-06-15T06:46:39.920Z,19.70
2023-06-15T06:49:07.999Z,19.80
2023-06-15T06:51:37.449Z,19.90
2023-06-15T06:54:07.116Z,19.90
2023-06-15T06:56:35.757Z,19.90
2023-06-15T06:59:04.230Z,19.90
2023-06-15T07:01:32.366Z,20.20
2023-06-15T07:04:00.560Z,20.10
2023-06-15T07:06:28.666Z,20.20
2023-06-15T07:08:56.675Z,20.30
2023-06-15T07:11:27.740Z,20.40
2023-06-15T07:13:56.028Z,20.30
2023-06-15T07:16:24.988Z,20.30
2023-06-15T07:18:53.455Z,20.40
2023-06-15T07:21:22.803Z,20.40
2023-06-15T07:23:54.163Z,20.40
2023-06-15T07:26:23.576Z,20.50
2023-06-15T07:28:53.825Z,20.50
2023-06-15T07:31:22.331Z,20.50
2023-06-15T07:33:50.963Z,20.60
2023-06-15T07:36:19.327Z,20.70
2023-06-15T07:38:47.957Z,20.70
2023-06-15T07:41:16.445Z,20.60
2023-06-15T07:43:45.011Z,20.60
2023-06-15T07:46:15.158Z,20.60
2023-06-15T07:48:46.780Z,20.70
2023-06-15T07:51:28.101Z,20.80
2023-06-15T07:54:03.571Z,20.70
2023-06-15T07:56:32.213Z,20.70
2023-06-15T07:59:01.822Z,20.80
2023-06-15T08:01:32.786Z,21.00
2023-06-15T08:04:03.166Z,21.10
2023-06-15T08:06:32.067Z,21.10
2023-06-15T08:09:03.411Z,21.00
2023-06-15T08:11:31.718Z,21.20
2023-06-15T08:14:00.056Z,21.30
2023-06-15T08:16:28.142Z,21.20
2023-06-15T08:18:57.961Z,21.30
2023-06-15T08:21:26.094Z,21.40
2023-06-15T08:23:55.055Z,21.50
2023-06-15T08:26:24.868Z,21.50
2023-06-15T08:28:55.190Z,21.40
2023-06-15T08:31:24.870Z,21.60
2023-06-15T08:33:54.047Z,21.50
2023-06-15T08:36:24.120Z,21.40
2023-06-15T08:38:52.558Z,21.60
2023-06-15T08:41:24.873Z,21.60
2023-06-15T08:43:55.424Z,21.60
2023-06-15T08:46:25.052Z,21.80
2023-06-15T08:48:54.881Z,21.80
2023-06-15T08:51:25.800Z,21.90
2023-06-15T08:53:56.199Z,21.80
2023-06-15T08:56:24.463Z,21.90
2023-06-15T08:58:52.543Z,22.00
2023-06-15T09:01:23.576Z,22.00
2023-06-15T09:03:54.507Z,22.00
2023-06-15T09:06:25.122Z,22.10
2023-06-15T09:08:54.404Z,22.10
2023-06-15T09:11:24.657Z,22.10
2023-06-15T09:13:52.951Z,22.30
2023-06-15T09:16:21.460Z,22.20
2023-06-15T09:18:53.139Z,22.20
2023-06-15T09:21:23.862Z,22.50
2023-06-15T09:23:53.672Z,22.60
2023-06-15T09:26:27.197Z,22.60
2023-06-15T09:28:57.199Z,22.50
2023-06-15T09:31:32.670Z,22.50
2023-06-15T09:34:05.471Z,22.50
2023-06-15T09:36:40.835Z,22.50
2023-06-15T09:39:11.978Z,22.80
2023-06-15T09:41:53.809Z,22.70
2023-06-15T09:44:23.609Z,23.10
2023-06-15T09:46:53.730Z,23.20
2023-06-15T09:49:24.797Z,22.90
2023-06-15T09:51:56.498Z,22.90
2023-06-15T09:54:29.489Z,23.20
2023-06-15T09:56:59.626Z,23.60
2023-06-15T09:59:27.995Z,23.40
2023-06-15T10:01:57.923Z,23.20
2023-06-15T10:04:29.736Z,23.40
2023-06-15T10:07:01.498Z,23.40
2023-06-15T10:09:41.117Z,23.60
2023-06-15T10:12:14.934Z,23.40
2023-06-15T10:14:50.997Z,23.40
2023-06-15T10:17:25.474Z,23.50
2023-06-15T10:20:01.190Z,23.50
2023-06-15T10:22:31.370Z,23.60
2023-06-15T10:25:02.113Z,23.80
2023-06-15T10:27:30.739Z,23.70
2023-06-15T10:30:09.574Z,24.10
2023-06-15T10:32:45.099Z,24.30
2023-06-15T10:35:21.723Z,24.10
2023-06-15T10:37:58.076Z,24.30
2023-06-15T10:40:32.740Z,24.50
2023-06-15T10:43:03.662Z,24.60
2023-06-15T10:45:34.010Z,24.20
2023-06-15T10:48:04.074Z,24.10
2023-06-15T10:50:42.076Z,24.50
2023-06-15T10:53:25.787Z,25.00
2023-06-15T10:56:00.935Z,24.60
2023-06-15T10:58:30.420Z,24.80
2023-06-15T11:01:10.321Z,24.90
2023-06-15T11:03:42.235Z,24.50
2023-06-15T11:06:16.731Z,24.80
2023-06-15T11:08:49.097Z,25.10
2023-06-15T11:11:22.318Z,25.70
2023-06-15T11:14:05.118Z,25.80
2023-06-15T11:16:35.254Z,25.60
2023-06-15T11:19:30.354Z,26.10
2023-06-15T11:22:05.332Z,26.30
2023-06-15T11:24:39.154Z,27.00
2023-06-15T11:27:11.451Z,27.30
2023-06-15T11:29:42.696Z,26.90
2023-06-15T11:32:12.506Z,27.30
2023-06-15T11:34:41.890Z,26.90
2023-06-15T11:37:14.900Z,27.00
2023-06-15T11:39:45.643Z,26.40
2023-06-15T11:42:16.633Z,26.00
2023-06-15T11:44:45.555Z,26.10
2023-06-15T11:47:14.726Z,26.70
2023-06-15T11:49:43.242Z,26.50
2023-06-15T11:52:12.275Z,26.40
2023-06-15T11:54:52.483Z,26.60
2023-06-15T11:57:24.290Z,26.70
2023-06-15T11:59:53.441Z,26.10
2023-06-15T12:02:22.656Z,26.10
2023-06-15T12:04:51.096Z,25.90
2023-06-15T12:07:32.488Z,25.20
2023-06-15T12:10:06.057Z,24.80
2023-06-15T12:12:37.725Z,25.80
2023-06-15T12:15:08.102Z,26.30
2023-06-15T12:17:40.212Z,25.00
2023-06-15T12:20:11.377Z,24.80
2023-06-15T12:22:44.811Z,24.60
2023-06-15T12:25:15.635Z,24.80
2023-06-15T12:27:46.752Z,25.90
2023-06-15T12:30:17.282Z,26.60
2023-06-15T12:32:47.030Z,26.80
2023-06-15T12:35:29.496Z,26.90
2023-06-15T12:37:59.008Z,27.00
2023-06-15T12:40:27.431Z,27.50
2023-06-15T12:43:01.868Z,27.70
2023-06-15T12:45:30.506Z,27.60
2023-06-15T12:47:59.426Z,27.20
2023-06-15T12:50:27.873Z,27.60
2023-06-15T12:52:58.237Z,28.40
2023-06-15T12:55:27.469Z,28.20
2023-06-15T12:57:56.834Z,28.40
2023-06-15T13:00:30.026Z,28.30
2023-06-15T13:03:00.264Z,29.10
2023-06-15T13:05:30.269Z,29.70
2023-06-15T13:07:58.947Z,29.70
2023-06-15T13:10:27.592Z,29.80
2023-06-15T13:12:56.578Z,29.30
2023-06-15T13:15:26.771Z,28.50
2023-06-15T13:17:55.534Z,28.60
2023-06-15T13:20:23.895Z,29.40
2023-06-15T13:22:53.714Z,28.60
2023-06-15T13:25:22.361Z,28.20
2023-06-15T13:27:50.658Z,27.30
2023-06-15T13:30:19.577Z,26.90
2023-06-15T13:32:49.977Z,26.60
2023-06-15T13:35:18.688Z,26.60
2023-06-15T13:37:47.381Z,26.30
2023-06-15T13:40:16.217Z,26.20
2023-06-15T13:42:44.531Z,26.30
2023-06-15T13:45:15.034Z,25.80
2023-06-15T13:47:45.502Z,26.00
2023-06-15T13:50:17.951Z,26.00
2023-06-15T13:52:50.248Z,25.80
2023-06-15T13:55:19.793Z,25.70
2023-06-15T13:57:49.186Z,25.40
2023-06-15T14:00:19.312Z,26.40
2023-06-15T14:02:48.263Z,27.20
2023-06-15T14:05:18.221Z,28.30
2023-06-15T14:07:46.911Z,28.30
2023-06-15T14:10:15.303Z,28.80
2023-06-15T14:12:43.661Z,28.30
2023-06-15T14:15:12.129Z,28.40
2023-06-15T14:17:41.846Z,28.40
2023-06-15T14:20:13.152Z,28.50
2023-06-15T14:22:42.472Z,28.10
2023-06-15T14:25:13.222Z,26.90
2023-06-15T14:27:46.709Z,26.40
2023-06-15T14:30:16.300Z,26.30
2023-06-15T14:32:44.570Z,26.00
2023-06-15T14:35:12.971Z,25.90
2023-06-15T14:37:42.348Z,26.00
2023-06-15T14:40:11.126Z,27.40
2023-06-15T14:42:48.424Z,27.80
2023-06-15T14:45:17.218Z,28.00
2023-06-15T14:47:45.193Z,28.30
2023-06-15T14:50:13.509Z,28.20
2023-06-15T14:52:43.849Z,28.30
2023-06-15T14:55:12.290Z,27.70
2023-06-15T14:57:40.391Z,28.20
2023-06-15T15:00:10.495Z,28.00
2023-06-15T15:02:38.573Z,27.70
2023-06-15T15:05:07.410Z,27.70
2023-06-15T15:07:38.303Z,27.90
2023-06-15T15:10:10.115Z,28.40
2023-06-15T15:12:38.148Z,28.80
2023-06-15T15:15:06.906Z,28.50
2023-06-15T15:17:34.963Z,28.40
2023-06-15T15:20:03.491Z,27.30
2023-06-15T15:22:31.839Z,26.40
2023-06-15T15:24:59.840Z,26.20
2023-06-15T15:27:29.548Z,26.00
2023-06-15T15:29:58.117Z,25.90
2023-06-15T15:32:26.212Z,25.90
2023-06-15T15:34:54.620Z,26.00
2023-06-15T15:37:23.480Z,26.70
2023-06-15T15:39:51.514Z,27.70
2023-06-15T15:42:19.730Z,28.40
2023-06-15T15:44:49.138Z,28.10
2023-06-15T15:47:17.560Z,27.80
2023-06-15T15:49:45.569Z,28.00
2023-06-15T15:52:13.810Z,28.60
2023-06-15T15:54:41.756Z,28.90
2023-06-15T15:57:09.625Z,28.50
2023-06-15T15:59:39.009Z,28.30
2023-06-15T16:02:10.707Z,28.30
2023-06-15T16:04:39.795Z,28.70
2023-06-15T16:07:08.464Z,28.70
2023-06-15T16:09:36.485Z,28.50
2023-06-15T16:12:05.185Z,28.10
2023-06-15T16:14:33.165Z,27.50
2023-06-15T16:17:04.609Z,27.30
2023-06-15T16:19:34.451Z,27.40
2023-06-15T16:22:02.522Z,27.60
2023-06-15T16:24:30.519Z,27.40
2023-06-15T16:26:58.748Z,27.90
2023-06-15T16:29:26.770Z,28.00
2023-06-15T16:31:55.449Z,28.50
2023-06-15T16:34:23.423Z,28.20
2023-06-15T16:36:52.822Z,27.30
2023-06-15T16:39:45.873Z,26.90
2023-06-15T16:42:15.261Z,26.80
2023-06-15T16:44:43.250Z,27.80
2023-06-15T16:47:11.753Z,27.90
2023-06-15T16:49:41.267Z,27.00
2023-06-15T16:52:12.048Z,26.80
2023-06-15T16:54:40.886Z,27.10
2023-06-15T16:57:11.647Z,26.90
2023-06-15T16:59:41.536Z,26.70
2023-06-15T17:02:11.227Z,26.80
2023-06-15T17:04:39.704Z,27.80
2023-06-15T17:07:09.059Z,27.10
2023-06-15T17:09:42.050Z,26.80
2023-06-15T17:12:11.531Z,26.40
2023-06-15T17:14:39.772Z,26.00
2023-06-15T17:17:08.033Z,26.00
2023-06-15T17:19:36.307Z,25.80
2023-06-15T17:22:04.742Z,25.70
2023-06-15T17:24:32.877Z,25.80
2023-06-15T17:27:03.735Z,25.70
2023-06-15T17:29:32.048Z,26.80
2023-06-15T17:32:00.178Z,27.50
2023-06-15T17:34:28.515Z,26.40
2023-06-15T17:36:56.808Z,27.00
2023-06-15T17:39:24.897Z,26.50
2023-06-15T17:41:52.766Z,26.80
2023-06-15T17:44:22.168Z,26.50
2023-06-15T17:46:51.966Z,25.80
2023-06-15T17:49:20.069Z,25.60
2023-06-15T17:51:48.585Z,25.20
2023-06-15T17:54:17.021Z,25.60
2023-06-15T17:56:47.347Z,26.80
2023-06-15T17:59:15.705Z,25.70
2023-06-15T18:01:45.021Z,25.00
2023-06-15T18:04:13.351Z,24.80
2023-06-15T18:06:41.677Z,24.80
2023-06-15T18:09:14.108Z,24.80
2023-06-15T18:11:42.207Z,25.00
2023-06-15T18:14:10.896Z,24.90
2023-06-15T18:16:39.715Z,24.60
2023-06-15T18:19:09.154Z,24.60
2023-06-15T18:21:37.479Z,24.50
2023-06-15T18:24:06.168Z,24.20
2023-06-15T18:26:34.240Z,24.20
2023-06-15T18:29:02.576Z,24.20
2023-06-15T18:31:30.540Z,24.10
2023-06-15T18:33:58.541Z,24.00
2023-06-15T18:36:29.690Z,24.00
2023-06-15T18:38:57.675Z,24.00
2023-06-15T18:41:26.792Z,24.00
2023-06-15T18:43:54.947Z,24.00
2023-06-15T18:46:23.801Z,23.90
2023-06-15T18:48:52.736Z,23.80
2023-06-15T18:51:21.274Z,23.80
2023-06-15T18:53:50.856Z,23.80
2023-06-15T18:56:18.876Z,23.70
2023-06-15T18:58:47.176Z,23.50
2023-06-15T19:01:16.406Z,23.50
2023-06-15T19:03:44.645Z,23.80
2023-06-15T19:06:12.702Z,23.70
2023-06-15T19:08:40.938Z,23.70
2023-06-15T19:11:10.383Z,23.60
2023-06-15T19:13:38.387Z,23.70
2023-06-15T19:16:07.145Z,23.40
2023-06-15T19:18:35.198Z,23.40
2023-06-15T19:21:05.603Z,23.30
2023-06-15T19:23:33.633Z,23.40
2023-06-15T19:26:01.785Z,23.30
2023-06-15T19:28:31.596Z,23.00
2023-06-15T19:30:59.817Z,22.90
2023-06-15T19:33:28.401Z,22.80
2023-06-15T19:35:57.584Z,22.90
2023-06-15T19:38:32.305Z,22.80
2023-06-15T19:41:00.989Z,22.80
2023-06-15T19:43:31.619Z,22.80
2023-06-15T19:46:01.153Z,22.60
2023-06-15T19:48:29.703Z,22.40
2023-06-15T19:50:58.900Z,22.40
2023-06-15T19:53:31.554Z,22.10
2023-06-15T19:56:04.288Z,22.10
2023-06-15T19:58:35.730Z,22.20
2023-06-15T20:01:04.786Z,22.40
2023-06-15T20:03:34.202Z,22.30
2023-06-15T20:06:03.606Z,22.20
2023-06-15T20:08:35.102Z,22.10
2023-06-15T20:11:04.145Z,21.90
2023-06-15T20:13:35.510Z,21.70
2023-06-15T20:16:07.851Z,21.60
2023-06-15T20:18:36.719Z,21.40
2023-06-15T20:21:05.010Z,21.50
2023-06-15T20:23:33.394Z,21.60
2023-06-15T20:26:01.755Z,21.60
2023-06-15T20:28:33.594Z,21.30
2023-06-15T20:31:05.589Z,21.10
2023-06-15T20:33:35.156Z,21.00
2023-06-15T20:36:05.001Z,20.90
2023-06-15T20:38:35.738Z,20.80
2023-06-15T20:41:06.084Z,20.70
2023-06-15T20:43:34.469Z,20.90
2023-06-15T20:46:04.113Z,20.70
2023-06-15T20:48:35.885Z,20.50
2023-06-15T20:51:06.707Z,20.30
2023-06-15T20:53:35.834Z,20.30
2023-06-15T20:56:06.331Z,20.20
2023-06-15T20:58:35.839Z,20.20
2023-06-15T21:01:06.842Z,20.10
2023-06-15T21:03:35.777Z,20.10
2023-06-15T21:06:05.100Z,20.00
2023-06-15T21:08:34.751Z,19.90
2023-06-15T21:11:03.948Z,19.90
2023-06-15T21:13:34.662Z,19.80
2023-06-15T21:16:06.860Z,19.70
2023-06-15T21:18:36.218Z,19.60
2023-06-15T21:21:19.671Z,19.60
2023-06-15T21:23:48.158Z,19.50
2023-06-15T21:26:16.771Z,19.70
2023-06-15T21:28:44.800Z,19.60
2023-06-15T21:31:15.107Z,19.50
2023-06-15T21:33:43.265Z,19.50
2023-06-15T21:36:11.839Z,19.40
2023-06-15T21:38:40.259Z,19.40
2023-06-15T21:41:08.214Z,19.40
2023-06-15T21:43:39.094Z,19.40
2023-06-15T21:46:07.772Z,19.20
2023-06-15T21:48:37.266Z,19.10
2023-06-15T21:51:05.802Z,19.10
2023-06-15T21:53:33.727Z,19.00
2023-06-15T21:56:01.845Z,19.00
2023-06-15T21:58:30.045Z,19.00
2023-06-15T22:00:57.942Z,18.90
2023-06-15T22:03:26.316Z,18.80
2023-06-15T22:05:55.737Z,18.80
2023-06-15T22:08:23.717Z,18.80
2023-06-15T22:10:51.681Z,18.90
2023-06-15T22:13:19.639Z,19.00
2023-06-15T22:15:47.722Z,19.00
2023-06-15T22:18:16.459Z,19.00
2023-06-15T22:20:50.290Z,19.00
2023-06-15T22:23:21.299Z,19.10
2023-06-15T22:25:55.951Z,18.90
2023-06-15T22:28:24.904Z,18.80
2023-06-15T22:30:53.314Z,18.90
2023-06-15T22:33:24.182Z,19.00
2023-06-15T22:35:52.641Z,18.80
2023-06-15T22:38:21.993Z,18.70
2023-06-15T22:40:50.322Z,18.50
2023-06-15T22:43:18.366Z,18.60
2023-06-15T22:45:46.439Z,18.70
2023-06-15T22:48:15.505Z,18.60
2023-06-15T22:50:45.735Z,18.60
2023-06-15T22:53:14.095Z,18.50
2023-06-15T22:55:43.654Z,18.40
2023-06-15T22:58:11.971Z,18.30
2023-06-15T23:00:40.062Z,18.20
2023-06-15T23:03:08.321Z,18.10
2023-06-15T23:05:45.206Z,18.20
2023-06-15T23:08:22.427Z,18.30
2023-06-15T23:10:53.959Z,18.30
2023-06-15T23:13:22.735Z,18.30
2023-06-15T23:15:53.887Z,18.40
2023-06-15T23:18:22.247Z,18.40
2023-06-15T23:20:50.413Z,18.20
2023-06-15T23:27:00.377Z,17.90
2023-06-15T23:29:28.602Z,17.90
2023-06-15T23:31:56.567Z,17.70
2023-06-15T23:34:24.644Z,17.60
2023-06-15T23:36:52.747Z,17.60
2023-06-15T23:39:20.687Z,17.60
2023-06-15T23:41:48.682Z,17.60
2023-06-15T23:44:18.264Z,17.50
2023-06-15T23:46:46.188Z,17.50
2023-06-15T23:49:15.855Z,17.50
2023-06-15T23:51:44.400Z,17.50
2023-06-15T23:54:13.390Z,17.40
2023-06-15T23:56:41.531Z,17.50
2023-06-15T23:59:09.559Z,17.50
